createdAt,value
2023-03-17T00:01:44.594Z,3.40
2023-03-17T00:04:12.360Z,3.40
2023-03-17T00:06:40.287Z,3.30
2023-03-17T00:09:14.646Z,3.30
2023-03-17T00:11:42.198Z,3.30
2023-03-17T00:14:09.213Z,3.30
2023-03-17T00:16:42.929Z,3.40
2023-03-17T00:19:24.223Z,3.40
2023-03-17T00:21:50.928Z,3.40
2023-03-17T00:24:17.623Z,3.40
2023-03-17T00:26:44.694Z,3.40
2023-03-17T00:29:11.419Z,3.40
2023-03-17T00:31:39.460Z,3.40
2023-03-17T00:34:07.325Z,3.40
2023-03-17T00:36:34.441Z,3.30
2023-03-17T00:39:01.529Z,3.50
2023-03-17T00:41:29.453Z,3.40
2023-03-17T00:43:57.220Z,3.40
2023-03-17T00:46:35.475Z,3.30
2023-03-17T00:51:44.604Z,3.30
2023-03-17T00:54:12.331Z,3.20
2023-03-17T00:56:40.316Z,3.20
2023-03-17T00:59:19.233Z,3.10
2023-03-17T01:01:47.815Z,3.10
2023-03-17T01:04:15.712Z,3.10
2023-03-17T01:06:43.186Z,3.10
2023-03-17T01:09:16.118Z,3.20
2023-03-17T01:11:44.126Z,3.20
2023-03-17T01:14:12.592Z,3.10
2023-03-17T01:16:39.572Z,3.10
2023-03-17T01:19:06.918Z,3.00
2023-03-17T01:21:33.656Z,3.00
2023-03-17T01:24:00.425Z,3.00
2023-03-17T01:26:27.417Z,2.90
2023-03-17T01:28:54.734Z,2.80
2023-03-17T01:31:23.062Z,2.80
2023-03-17T01:33:49.904Z,2.70
2023-03-17T01:36:17.774Z,2.70
2023-03-17T01:38:45.495Z,2.70
2023-03-17T01:41:12.575Z,2.70
2023-03-17T01:43:39.264Z,2.70
2023-03-17T01:46:14.820Z,2.70
2023-03-17T01:48:48.895Z,2.70
2023-03-17T01:51:30.263Z,2.60
2023-03-17T01:53:58.529Z,2.50
2023-03-17T01:56:25.848Z,2.40
2023-03-17T01:58:54.674Z,2.40
2023-03-17T02:01:26.762Z,2.30
2023-03-17T02:03:55.178Z,2.30
2023-03-17T02:06:22.205Z,2.30
2023-03-17T02:08:48.827Z,2.10
2023-03-17T02:11:15.523Z,2.00
2023-03-17T02:13:44.621Z,2.00
2023-03-17T02:16:18.027Z,2.00
2023-03-17T02:18:45.022Z,1.90
2023-03-17T02:21:43.529Z,1.90
2023-03-17T02:24:20.690Z,1.90
2023-03-17T02:26:49.666Z,2.00
2023-03-17T02:29:16.759Z,1.90
2023-03-17T02:31:45.388Z,1.90
2023-03-17T02:34:12.102Z,1.80
2023-03-17T02:36:38.830Z,1.80
2023-03-17T02:39:05.891Z,1.70
2023-03-17T02:41:32.879Z,1.80
2023-03-17T02:43:59.780Z,1.80
2023-03-17T02:46:27.146Z,1.70
2023-03-17T02:48:55.495Z,1.70
2023-03-17T02:51:22.504Z,1.70
2023-03-17T02:53:49.422Z,1.60
2023-03-17T02:56:16.099Z,1.60
2023-03-17T02:58:42.808Z,1.70
2023-03-17T03:01:09.765Z,1.80
2023-03-17T03:03:37.113Z,1.70
2023-03-17T03:06:03.963Z,1.60
2023-03-17T03:08:30.947Z,1.50
2023-03-17T03:10:57.848Z,1.60
2023-03-17T03:13:24.558Z,1.80
2023-03-17T03:15:51.263Z,1.80
2023-03-17T03:18:18.008Z,1.80
2023-03-17T03:20:46.144Z,1.60
2023-03-17T03:23:13.892Z,1.50
2023-03-17T03:25:40.786Z,1.40
2023-03-17T03:28:08.568Z,1.50
2023-03-17T03:30:36.562Z,1.30
2023-03-17T03:33:03.545Z,1.20
2023-03-17T03:35:30.569Z,1.10
2023-03-17T03:37:57.785Z,1.10
2023-03-17T03:40:25.712Z,1.00
2023-03-17T03:42:52.356Z,1.00
2023-03-17T03:45:19.297Z,1.10
2023-03-17T03:47:46.038Z,1.00
2023-03-17T03:50:13.291Z,0.90
2023-03-17T03:52:40.782Z,0.90
2023-03-17T03:55:07.936Z,0.90
2023-03-17T03:57:35.230Z,0.90
2023-03-17T04:00:02.275Z,0.90
2023-03-17T04:02:29.786Z,1.00
2023-03-17T04:04:56.455Z,0.90
2023-03-17T04:07:23.412Z,0.80
2023-03-17T04:09:50.067Z,0.80
2023-03-17T04:12:17.703Z,1.00
2023-03-17T04:14:44.546Z,1.00
2023-03-17T04:17:11.984Z,1.00
2023-03-17T04:19:39.341Z,0.80
2023-03-17T04:22:07.471Z,0.80
2023-03-17T04:24:34.916Z,0.70
2023-03-17T04:27:03.706Z,0.70
2023-03-17T04:29:32.210Z,0.60
2023-03-17T04:31:58.965Z,0.60
2023-03-17T04:34:27.230Z,0.60
2023-03-17T04:36:54.081Z,0.70
2023-03-17T04:39:20.891Z,0.70
2023-03-17T04:41:47.624Z,0.60
2023-03-17T04:44:14.328Z,0.80
2023-03-17T04:46:41.956Z,0.70
2023-03-17T04:49:09.475Z,0.70
2023-03-17T04:51:36.874Z,0.70
2023-03-17T04:54:04.150Z,0.60
2023-03-17T04:56:31.982Z,0.60
2023-03-17T04:58:59.010Z,0.60
2023-03-17T05:01:26.449Z,0.50
2023-03-17T05:03:53.176Z,0.60
2023-03-17T05:06:19.830Z,0.60
2023-03-17T05:08:46.604Z,0.50
2023-03-17T05:11:14.310Z,0.50
2023-03-17T05:13:41.085Z,0.40
2023-03-17T05:16:09.296Z,0.40
2023-03-17T05:18:37.181Z,0.40
2023-03-17T05:21:05.481Z,0.40
2023-03-17T05:23:32.471Z,0.30
2023-03-17T05:25:59.334Z,0.30
2023-03-17T05:28:26.751Z,0.20
2023-03-17T05:30:53.910Z,0.20
2023-03-17T05:33:21.637Z,0.20
2023-03-17T05:35:48.424Z,0.20
2023-03-17T05:38:16.173Z,0.40
2023-03-17T05:40:43.404Z,0.30
2023-03-17T05:43:10.148Z,0.30
2023-03-17T05:45:37.138Z,0.40
2023-03-17T05:48:04.801Z,0.40
2023-03-17T05:50:32.449Z,0.30
2023-03-17T05:52:59.313Z,0.40
2023-03-17T05:55:26.204Z,0.40
2023-03-17T05:57:52.882Z,0.40
2023-03-17T06:00:21.432Z,0.50
2023-03-17T06:02:48.357Z,0.60
2023-03-17T06:05:15.153Z,0.70
2023-03-17T06:07:52.831Z,0.90
2023-03-17T06:10:20.111Z,1.00
2023-03-17T06:12:47.476Z,1.10
2023-03-17T06:15:14.133Z,1.30
2023-03-17T06:17:40.824Z,1.30
2023-03-17T06:20:08.166Z,1.50
2023-03-17T06:22:34.913Z,1.60
2023-03-17T06:25:01.850Z,1.70
2023-03-17T06:27:28.568Z,1.80
2023-03-17T06:29:55.243Z,1.90
2023-03-17T06:32:22.030Z,2.00
2023-03-17T06:34:48.762Z,2.10
2023-03-17T06:37:16.489Z,2.20
2023-03-17T06:39:43.783Z,2.20
2023-03-17T06:42:10.502Z,2.30
2023-03-17T06:44:37.851Z,2.40
2023-03-17T06:47:04.892Z,2.40
2023-03-17T06:49:32.126Z,2.50
2023-03-17T06:51:58.927Z,2.70
2023-03-17T06:54:25.922Z,2.70
2023-03-17T06:56:53.281Z,2.70
2023-03-17T06:59:21.101Z,2.80
2023-03-17T07:01:49.295Z,3.00
2023-03-17T07:04:16.581Z,3.20
2023-03-17T07:06:43.234Z,3.30
2023-03-17T07:09:10.109Z,3.30
2023-03-17T07:11:36.955Z,3.60
2023-03-17T07:14:03.659Z,4.20
2023-03-17T07:16:30.822Z,4.60
2023-03-17T07:18:58.389Z,5.80
2023-03-17T07:21:25.306Z,7.10
2023-03-17T07:23:52.409Z,7.70
2023-03-17T07:26:19.181Z,8.40
2023-03-17T07:28:46.645Z,9.40
2023-03-17T07:31:14.451Z,9.70
2023-03-17T07:33:42.079Z,9.60
2023-03-17T07:36:09.129Z,8.60
2023-03-17T07:38:36.203Z,8.50
2023-03-17T07:41:04.596Z,8.50
2023-03-17T07:43:31.878Z,8.60
2023-03-17T07:45:58.950Z,8.10
2023-03-17T07:48:25.650Z,8.00
2023-03-17T07:50:52.388Z,8.50
2023-03-17T07:53:19.202Z,8.80
2023-03-17T07:55:46.016Z,8.40
2023-03-17T07:58:15.585Z,9.00
2023-03-17T08:00:42.546Z,9.30
2023-03-17T08:03:10.973Z,9.90
2023-03-17T08:05:38.010Z,11.10
2023-03-17T08:08:06.624Z,11.20
2023-03-17T08:10:33.845Z,10.50
2023-03-17T08:13:00.854Z,10.70
2023-03-17T08:15:27.552Z,10.50
2023-03-17T08:17:54.183Z,11.40
2023-03-17T08:20:21.749Z,13.30
2023-03-17T08:22:48.440Z,13.20
2023-03-17T08:25:15.264Z,13.40
2023-03-17T08:27:42.529Z,12.90
2023-03-17T08:30:09.978Z,13.60
2023-03-17T08:32:36.900Z,14.50
2023-03-17T08:35:06.307Z,13.70
2023-03-17T08:37:33.043Z,13.10
2023-03-17T08:40:00.988Z,13.20
2023-03-17T08:42:27.661Z,13.40
2023-03-17T08:44:54.394Z,14.30
2023-03-17T08:47:21.688Z,14.10
2023-03-17T08:49:48.512Z,14.10
2023-03-17T08:52:16.245Z,14.30
2023-03-17T08:54:43.198Z,14.00
2023-03-17T08:57:09.835Z,13.70
2023-03-17T08:59:36.528Z,13.60
2023-03-17T09:02:03.217Z,13.10
2023-03-17T09:04:30.060Z,13.20
2023-03-17T09:07:04.531Z,13.10
2023-03-17T09:09:33.501Z,12.70
2023-03-17T09:12:00.732Z,12.90
2023-03-17T09:14:27.605Z,13.30
2023-03-17T09:16:54.502Z,12.90
2023-03-17T09:19:21.656Z,12.80
2023-03-17T09:21:48.587Z,13.00
2023-03-17T09:24:15.237Z,13.30
2023-03-17T09:26:41.975Z,13.30
2023-03-17T09:29:08.790Z,13.00
2023-03-17T09:31:36.530Z,13.80
2023-03-17T09:34:05.197Z,13.50
2023-03-17T09:36:33.151Z,13.60
2023-03-17T09:39:00.928Z,13.70
2023-03-17T09:41:30.685Z,13.90
2023-03-17T09:44:19.501Z,13.60
2023-03-17T09:47:07.338Z,14.00
2023-03-17T09:49:57.381Z,14.30
2023-03-17T09:52:33.819Z,14.50
2023-03-17T09:55:03.258Z,14.40
2023-03-17T09:57:34.357Z,14.50
2023-03-17T10:00:07.300Z,15.10
2023-03-17T10:02:37.671Z,14.90
2023-03-17T10:05:22.475Z,14.90
2023-03-17T10:07:54.911Z,14.10
2023-03-17T10:10:43.091Z,14.80
2023-03-17T10:13:15.585Z,15.20
2023-03-17T10:16:05.799Z,14.70
2023-03-17T10:19:01.880Z,14.60
2023-03-17T10:21:41.471Z,14.30
2023-03-17T10:24:10.736Z,14.70
2023-03-17T10:26:42.780Z,15.00
2023-03-17T10:29:17.765Z,15.10
2023-03-17T10:31:44.918Z,14.80
2023-03-17T10:34:23.903Z,14.90
2023-03-17T10:36:55.425Z,14.60
2023-03-17T10:39:24.469Z,14.60
2023-03-17T10:42:07.386Z,14.90
2023-03-17T10:44:44.543Z,14.90
2023-03-17T10:47:30.269Z,15.10
2023-03-17T10:49:58.932Z,15.00
2023-03-17T10:52:28.736Z,14.50
2023-03-17T10:54:55.578Z,14.80
2023-03-17T10:57:22.920Z,14.90
2023-03-17T10:59:55.553Z,15.10
2023-03-17T11:02:31.545Z,14.60
2023-03-17T11:05:07.550Z,14.70
2023-03-17T11:07:38.619Z,14.90
2023-03-17T11:10:24.719Z,15.00
2023-03-17T11:13:02.057Z,15.30
2023-03-17T11:15:37.283Z,15.00
2023-03-17T11:18:19.564Z,15.30
2023-03-17T11:21:02.018Z,15.00
2023-03-17T11:23:50.115Z,15.00
2023-03-17T11:26:26.219Z,14.80
2023-03-17T11:29:19.700Z,14.80
2023-03-17T11:32:16.805Z,15.00
2023-03-17T11:35:21.318Z,14.80
2023-03-17T11:38:07.025Z,14.90
2023-03-17T11:40:48.986Z,15.00
2023-03-17T11:43:52.231Z,15.20
2023-03-17T11:46:29.311Z,15.00
2023-03-17T11:48:55.954Z,15.10
2023-03-17T11:51:54.802Z,15.00
2023-03-17T11:54:26.648Z,15.20
2023-03-17T11:56:57.855Z,15.40
2023-03-17T11:59:51.979Z,15.60
2023-03-17T12:02:43.483Z,15.80
2023-03-17T12:05:15.350Z,15.90
2023-03-17T12:08:03.209Z,16.10
2023-03-17T12:10:37.702Z,16.30
2023-03-17T12:13:23.051Z,16.50
2023-03-17T12:15:56.582Z,16.30
2023-03-17T12:18:32.649Z,16.70
2023-03-17T12:21:22.700Z,16.60
2023-03-17T12:24:01.849Z,15.90
2023-03-17T12:26:39.457Z,15.90
2023-03-17T12:29:18.023Z,15.90
2023-03-17T12:31:52.088Z,16.40
2023-03-17T12:34:25.781Z,16.10
2023-03-17T12:36:53.517Z,16.30
2023-03-17T12:39:33.551Z,16.40
2023-03-17T12:42:06.105Z,16.30
2023-03-17T12:44:53.378Z,16.00
2023-03-17T12:48:15.697Z,16.10
2023-03-17T12:51:06.286Z,16.10
2023-03-17T12:53:42.427Z,16.10
2023-03-17T12:56:17.230Z,16.20
2023-03-17T12:58:48.398Z,16.40
2023-03-17T13:01:34.739Z,16.40
2023-03-17T13:04:07.416Z,16.20
2023-03-17T13:06:42.537Z,16.10
2023-03-17T13:09:30.317Z,16.10
2023-03-17T13:11:59.333Z,16.10
2023-03-17T13:14:40.119Z,16.00
2023-03-17T13:17:19.791Z,15.90
2023-03-17T13:20:07.728Z,15.90
2023-03-17T13:22:40.861Z,16.00
2023-03-17T13:25:33.416Z,15.90
2023-03-17T13:28:27.483Z,15.90
2023-03-17T13:31:10.180Z,15.90
2023-03-17T13:33:49.073Z,15.90
2023-03-17T13:36:16.492Z,16.00
2023-03-17T13:39:19.830Z,16.00
2023-03-17T13:42:25.688Z,16.20
2023-03-17T13:45:10.769Z,15.70
2023-03-17T13:47:42.234Z,15.50
2023-03-17T13:50:21.328Z,15.70
2023-03-17T13:52:57.455Z,15.70
2023-03-17T13:55:24.147Z,15.90
2023-03-17T13:58:15.393Z,15.70
2023-03-17T14:00:49.336Z,16.00
2023-03-17T14:03:18.751Z,16.10
2023-03-17T14:05:51.447Z,15.90
2023-03-17T14:08:32.890Z,16.20
2023-03-17T14:11:08.856Z,16.60
2023-03-17T14:13:53.716Z,16.20
2023-03-17T14:16:26.734Z,16.20
2023-03-17T14:19:08.156Z,16.30
2023-03-17T14:21:34.839Z,16.30
2023-03-17T14:24:14.468Z,16.10
2023-03-17T14:26:41.173Z,16.20
2023-03-17T14:29:16.470Z,16.00
2023-03-17T14:31:48.015Z,15.90
2023-03-17T14:34:16.098Z,16.10
2023-03-17T14:36:43.281Z,16.20
2023-03-17T14:39:21.936Z,16.20
2023-03-17T14:41:59.153Z,16.20
2023-03-17T14:44:26.037Z,16.20
2023-03-17T14:47:01.793Z,15.90
2023-03-17T14:49:28.690Z,16.00
2023-03-17T14:51:57.206Z,16.00
2023-03-17T14:54:35.799Z,16.10
2023-03-17T14:57:07.682Z,16.10
2023-03-17T14:59:37.048Z,16.00
2023-03-17T15:02:33.006Z,15.90
2023-03-17T15:05:05.518Z,15.90
2023-03-17T15:07:37.781Z,16.00
2023-03-17T15:10:06.721Z,16.20
2023-03-17T15:12:33.581Z,16.00
2023-03-17T15:15:07.594Z,16.00
2023-03-17T15:17:36.605Z,15.90
2023-03-17T15:20:07.504Z,15.90
2023-03-17T15:22:46.780Z,15.90
2023-03-17T15:25:33.038Z,15.80
2023-03-17T15:28:00.408Z,15.80
2023-03-17T15:30:37.399Z,15.80
2023-03-17T15:33:33.830Z,15.70
2023-03-17T15:36:04.459Z,15.70
2023-03-17T15:38:31.584Z,15.50
2023-03-17T15:40:58.281Z,15.60
2023-03-17T15:43:25.331Z,15.60
2023-03-17T15:45:58.088Z,15.60
2023-03-17T15:48:31.386Z,15.50
2023-03-17T15:51:00.132Z,15.50
2023-03-17T15:53:27.812Z,15.40
2023-03-17T15:55:54.696Z,15.70
2023-03-17T15:58:21.562Z,15.50
2023-03-17T16:00:53.223Z,15.40
2023-03-17T16:03:27.884Z,15.40
2023-03-17T16:05:54.861Z,15.40
2023-03-17T16:08:22.323Z,15.30
2023-03-17T16:10:49.139Z,15.30
2023-03-17T16:13:16.021Z,15.20
2023-03-17T16:15:47.153Z,15.20
2023-03-17T16:18:18.141Z,15.30
2023-03-17T16:20:52.206Z,14.90
2023-03-17T16:23:24.746Z,15.00
2023-03-17T16:25:52.661Z,14.90
2023-03-17T16:28:31.382Z,14.90
2023-03-17T16:30:59.917Z,14.80
2023-03-17T16:33:39.542Z,14.90
2023-03-17T16:36:06.561Z,14.90
2023-03-17T16:38:33.918Z,14.90
2023-03-17T16:41:19.815Z,14.90
2023-03-17T16:43:51.086Z,14.80
2023-03-17T16:46:19.559Z,14.70
2023-03-17T16:48:46.370Z,14.60
2023-03-17T16:51:13.120Z,14.50
2023-03-17T16:53:39.781Z,14.50
2023-03-17T16:56:14.542Z,14.50
2023-03-17T16:58:41.748Z,14.40
2023-03-17T17:01:20.767Z,14.50
2023-03-17T17:03:47.808Z,14.40
2023-03-17T17:06:15.364Z,14.40
2023-03-17T17:08:43.731Z,14.40
2023-03-17T17:11:12.962Z,14.30
2023-03-17T17:13:44.676Z,14.30
2023-03-17T17:16:26.515Z,14.20
2023-03-17T17:18:53.484Z,14.10
2023-03-17T17:21:20.656Z,14.30
2023-03-17T17:23:47.400Z,14.00
2023-03-17T17:26:14.211Z,14.10
2023-03-17T17:28:41.059Z,14.00
2023-03-17T17:31:09.698Z,13.90
2023-03-17T17:33:37.680Z,14.00
2023-03-17T17:36:07.736Z,13.90
2023-03-17T17:38:34.511Z,13.90
2023-03-17T17:41:06.812Z,13.90
2023-03-17T17:43:33.593Z,13.80
2023-03-17T17:46:00.981Z,14.20
2023-03-17T17:48:28.151Z,13.90
2023-03-17T17:50:56.105Z,13.90
2023-03-17T17:53:22.742Z,13.90
2023-03-17T17:55:50.287Z,13.90
2023-03-17T17:58:19.623Z,13.90
2023-03-17T18:00:46.772Z,13.80
2023-03-17T18:03:13.598Z,13.80
2023-03-17T18:05:40.673Z,13.60
2023-03-17T18:08:07.325Z,13.70
2023-03-17T18:10:34.686Z,13.80
2023-03-17T18:13:01.880Z,13.70
2023-03-17T18:15:28.832Z,13.50
2023-03-17T18:17:56.011Z,13.70
2023-03-17T18:20:23.543Z,13.50
2023-03-17T18:22:51.264Z,13.30
2023-03-17T18:25:19.350Z,13.30
2023-03-17T18:27:47.263Z,13.30
2023-03-17T18:30:21.150Z,13.20
2023-03-17T18:32:49.759Z,13.30
2023-03-17T18:35:19.488Z,13.30
2023-03-17T18:37:46.673Z,13.30
2023-03-17T18:40:18.092Z,13.20
2023-03-17T18:42:46.010Z,13.10
2023-03-17T18:45:13.555Z,12.80
2023-03-17T18:47:41.923Z,12.70
2023-03-17T18:50:11.518Z,12.50
2023-03-17T18:52:41.024Z,12.50
2023-03-17T18:55:09.011Z,12.50
2023-03-17T18:57:35.844Z,12.60
2023-03-17T19:00:02.644Z,12.40
2023-03-17T19:02:29.827Z,12.20
2023-03-17T19:04:56.850Z,12.10
2023-03-17T19:07:23.566Z,12.00
2023-03-17T19:09:50.960Z,12.00
2023-03-17T19:12:18.538Z,11.90
2023-03-17T19:14:45.500Z,11.70
2023-03-17T19:17:12.224Z,11.60
2023-03-17T19:19:40.548Z,11.60
2023-03-17T19:22:07.669Z,11.80
2023-03-17T19:24:36.072Z,12.00
2023-03-17T19:27:02.760Z,12.20
2023-03-17T19:29:29.487Z,12.10
2023-03-17T19:31:56.182Z,11.70
2023-03-17T19:34:23.285Z,11.40
2023-03-17T19:36:50.574Z,11.10
2023-03-17T19:39:17.847Z,10.90
2023-03-17T19:41:44.591Z,10.80
2023-03-17T19:44:11.309Z,10.60
2023-03-17T19:46:38.511Z,10.50
2023-03-17T19:49:05.370Z,10.40
2023-03-17T19:51:33.119Z,10.30
2023-03-17T19:54:00.178Z,10.30
2023-03-17T19:56:27.828Z,10.20
2023-03-17T19:58:55.447Z,10.10
2023-03-17T20:01:22.829Z,10.10
2023-03-17T20:03:49.789Z,10.00
2023-03-17T20:06:16.872Z,10.10
2023-03-17T20:08:43.963Z,10.00
2023-03-17T20:11:13.161Z,10.00
2023-03-17T20:13:40.204Z,10.00
2023-03-17T20:16:08.016Z,9.80
2023-03-17T20:18:35.218Z,9.80
2023-03-17T20:21:05.546Z,9.80
2023-03-17T20:23:33.469Z,9.80
2023-03-17T20:26:01.418Z,9.80
2023-03-17T20:28:29.967Z,10.20
2023-03-17T20:31:00.576Z,9.70
2023-03-17T20:33:27.751Z,9.70
2023-03-17T20:35:54.556Z,9.70
2023-03-17T20:38:21.346Z,10.00
2023-03-17T20:40:48.209Z,10.10
2023-03-17T20:43:14.970Z,10.00
2023-03-17T20:45:41.693Z,10.00
2023-03-17T20:48:10.662Z,10.00
2023-03-17T20:50:38.969Z,10.00
2023-03-17T20:53:05.768Z,10.10
2023-03-17T20:55:32.505Z,10.20
2023-03-17T20:57:59.751Z,10.20
2023-03-17T21:00:26.970Z,10.30
2023-03-17T21:02:53.723Z,10.50
2023-03-17T21:05:24.469Z,10.50
2023-03-17T21:07:51.454Z,10.60
2023-03-17T21:10:19.159Z,11.10
2023-03-17T21:12:46.480Z,11.20
2023-03-17T21:15:14.100Z,11.10
2023-03-17T21:17:42.344Z,11.00
2023-03-17T21:20:11.467Z,11.60
2023-03-17T21:22:39.872Z,12.00
2023-03-17T21:25:08.736Z,12.20
2023-03-17T21:27:37.732Z,12.30
2023-03-17T21:30:08.835Z,12.30
2023-03-17T21:32:36.139Z,12.20
2023-03-17T21:35:03.438Z,12.10
2023-03-17T21:37:30.315Z,12.30
2023-03-17T21:39:57.265Z,12.30
2023-03-17T21:42:27.760Z,12.30
2023-03-17T21:44:55.921Z,12.20
2023-03-17T21:47:22.602Z,12.20
2023-03-17T21:49:49.762Z,12.00
2023-03-17T21:52:16.539Z,12.00
2023-03-17T21:54:43.259Z,11.90
2023-03-17T21:57:11.760Z,11.80
2023-03-17T21:59:38.706Z,11.60
2023-03-17T22:02:05.943Z,11.50
2023-03-17T22:04:32.736Z,11.60
2023-03-17T22:06:59.463Z,11.60
2023-03-17T22:09:26.584Z,11.50
2023-03-17T22:11:53.344Z,11.40
2023-03-17T22:14:20.709Z,11.50
2023-03-17T22:16:48.959Z,11.50
2023-03-17T22:19:16.237Z,11.60
2023-03-17T22:21:43.962Z,11.50
2023-03-17T22:24:11.147Z,11.40
2023-03-17T22:26:37.955Z,11.40
2023-03-17T22:29:05.028Z,11.50
2023-03-17T22:31:31.798Z,11.40
2023-03-17T22:33:59.536Z,11.30
2023-03-17T22:36:27.325Z,11.20
2023-03-17T22:38:54.419Z,11.00
2023-03-17T22:41:23.783Z,10.90
2023-03-17T22:43:50.741Z,11.00
2023-03-17T22:46:17.961Z,11.00
2023-03-17T22:48:46.172Z,11.00
2023-03-17T22:51:17.513Z,11.00
2023-03-17T22:53:44.691Z,10.80
2023-03-17T22:56:12.912Z,10.80
2023-03-17T22:58:41.574Z,10.80
2023-03-17T23:01:09.734Z,10.80
2023-03-17T23:03:36.534Z,10.70
2023-03-17T23:06:04.822Z,10.60
2023-03-17T23:08:35.119Z,10.50
2023-03-17T23:11:07.068Z,10.50
2023-03-17T23:13:35.117Z,10.40
2023-03-17T23:16:01.866Z,10.40
2023-03-17T23:18:28.803Z,10.40
2023-03-17T23:20:55.490Z,10.20
2023-03-17T23:23:22.224Z,10.20
2023-03-17T23:25:49.049Z,10.20
2023-03-17T23:28:16.023Z,10.10
2023-03-17T23:30:43.815Z,10.00
2023-03-17T23:33:10.663Z,9.90
2023-03-17T23:35:38.045Z,9.90
2023-03-17T23:38:04.968Z,10.00
2023-03-17T23:40:32.003Z,10.10
2023-03-17T23:42:58.932Z,10.10
2023-03-17T23:45:25.879Z,10.00
2023-03-17T23:47:54.311Z,9.90
2023-03-17T23:50:21.165Z,9.80
2023-03-17T23:52:49.297Z,9.80
2023-03-17T23:55:18.677Z,9.70
2023-03-17T23:57:45.694Z,9.60
